Terminal Aerodrome Forecast
Issued by NWS

Home | Current Version | Previous Version | Text Only | Print | Product List | Glossary On
Versions: 1 2 3 4 5 6 7 8 9 10 11 12 13 14 15 16 17 18
000
FTUS41 KOKX 290200 AAA
TAFHPN
TAF AMD
KHPN 290230Z 2903/2924 31008KT P6SM FEW040 BKN120
     FM290600 32006KT P6SM BKN150
     FM291200 32007KT P6SM BKN250
     FM291800 31007KT P6SM FEW035 BKN250
      AMD NOT SKED=

USA.gov is the U.S. government's official web portal to all federal, state and local government web resources and services.